Time;durP1;ratioP1;P1;durP2;ratioP2;P2;SDS_P1;SDS_P2;PMS_P1;PMS_P2;Temp;Humidity;BMP_temperature;BMP_pressure;BME280_temperature;BME280_humidity;BME280_pressure;Samples;Min_cycle;Max_cycle;Signal;HPM_P1;HPM_P2
2021/11/24 00:01:30;;;;;;;63.10;10.10;;;24.00;33.70;;;;;;5019621;28;20093;-61
2021/11/24 00:03:56;;;;;;;54.08;10.25;;;23.90;33.50;;;;;;5072999;28;20555;-59
2021/11/24 00:06:22;;;;;;;48.97;9.10;;;23.80;33.10;;;;;;5072299;28;20476;-58
2021/11/24 00:08:50;;;;;;;59.25;10.55;;;23.80;35.70;;;;;;5089278;28;20076;-62
2021/11/24 00:11:16;;;;;;;38.10;9.88;;;23.80;35.80;;;;;;5055374;28;20104;-60
2021/11/24 00:13:43;;;;;;;56.15;10.15;;;23.70;35.70;;;;;;5065622;28;20156;-60
2021/11/24 00:16:09;;;;;;;61.67;10.98;;;23.70;36.00;;;;;;5060698;28;20126;-60
2021/11/24 00:18:36;;;;;;;65.32;11.25;;;23.60;34.90;;;;;;5060254;28;20133;-59
2021/11/24 00:21:02;;;;;;;59.35;11.48;;;23.50;35.10;;;;;;5078032;28;20073;-71
2021/11/24 00:23:29;;;;;;;68.03;11.18;;;23.50;33.50;;;;;;5053938;28;20076;-65
2021/11/24 00:25:55;;;;;;;58.47;11.27;;;23.40;33.30;;;;;;5069856;28;20076;-63
2021/11/24 00:28:22;;;;;;;46.45;10.60;;;23.40;35.70;;;;;;5053459;28;20073;-65
2021/11/24 00:30:48;;;;;;;62.75;12.40;;;23.30;35.10;;;;;;5067161;28;20134;-66
2021/11/24 00:33:15;;;;;;;60.42;12.18;;;23.30;35.50;;;;;;5075241;28;20126;-66
2021/11/24 00:35:41;;;;;;;68.70;12.95;;;23.20;34.80;;;;;;5059952;28;20576;-66
2021/11/24 00:38:07;;;;;;;52.85;11.70;;;23.10;35.60;;;;;;5081975;28;20539;-65
2021/11/24 00:40:34;;;;;;;50.10;11.40;;;23.10;36.10;;;;;;5058626;28;20069;-61
2021/11/24 00:43:00;;;;;;;63.00;12.82;;;23.10;34.40;;;;;;5059424;28;20077;-64
2021/11/24 00:45:27;;;;;;;43.65;11.05;;;23.10;34.60;;;;;;5071729;28;20170;-64
2021/11/24 00:47:53;;;;;;;61.80;11.95;;;23.10;35.80;;;;;;5063505;28;20454;-66
2021/11/24 00:50:20;;;;;;;54.63;11.40;;;23.00;35.70;;;;;;5057335;28;20085;-62
2021/11/24 00:52:46;;;;;;;57.15;12.85;;;23.00;36.10;;;;;;5064474;28;20134;-61
2021/11/24 00:55:13;;;;;;;62.03;12.25;;;23.00;35.00;;;;;;5063037;28;20077;-64
2021/11/24 00:57:39;;;;;;;56.70;11.30;;;22.90;39.20;;;;;;5042961;28;20108;-63
2021/11/24 01:00:06;;;;;;;53.17;10.93;;;22.90;37.40;;;;;;5068141;28;20503;-63
2021/11/24 01:02:33;;;;;;;74.20;13.13;;;22.90;37.90;;;;;;5036948;28;20446;-62
2021/11/24 01:04:59;;;;;;;52.20;13.35;;;22.80;37.10;;;;;;5056104;28;20065;-67
2021/11/24 01:07:26;;;;;;;61.33;13.70;;;22.70;36.90;;;;;;5070836;28;20077;-64
2021/11/24 01:09:53;;;;;;;60.88;12.52;;;22.70;37.30;;;;;;5045867;28;20073;-67
2021/11/24 01:12:21;;;;;;;57.42;13.70;;;22.70;37.90;;;;;;5068066;28;20069;-64
2021/11/24 01:14:48;;;;;;;71.40;12.63;;;22.70;38.30;;;;;;5073367;28;20101;-65
2021/11/24 01:17:14;;;;;;;81.68;15.35;;;22.70;38.30;;;;;;5057951;28;20190;-64
2021/11/24 01:19:40;;;;;;;73.93;14.35;;;22.70;35.10;;;;;;5085664;28;20183;-63
2021/11/24 01:22:07;;;;;;;66.93;13.32;;;22.70;35.30;;;;;;5054039;28;20524;-63
2021/11/24 01:24:34;;;;;;;75.60;14.18;;;22.60;36.50;;;;;;5087264;28;20179;-65
2021/11/24 01:27:00;;;;;;;72.20;14.68;;;22.70;36.70;;;;;;5075986;28;20562;-65
2021/11/24 01:29:26;;;;;;;91.07;14.90;;;22.60;37.70;;;;;;5071168;28;20077;-64
2021/11/24 01:31:53;;;;;;;74.63;15.38;;;22.60;36.80;;;;;;5063552;28;20142;-63
2021/11/24 01:34:19;;;;;;;56.22;12.25;;;22.60;36.60;;;;;;5080989;28;20544;-64
2021/11/24 01:36:46;;;;;;;59.05;13.00;;;22.60;37.70;;;;;;5069512;28;20073;-63
2021/11/24 01:39:12;;;;;;;76.13;13.35;;;22.50;36.40;;;;;;5023169;28;20089;-64
2021/11/24 01:41:39;;;;;;;83.68;13.35;;;22.50;36.40;;;;;;5056457;28;20143;-64
2021/11/24 01:44:05;;;;;;;54.78;13.55;;;22.50;37.90;;;;;;5056202;28;20565;-64
2021/11/24 01:46:32;;;;;;;75.47;13.75;;;22.40;38.60;;;;;;5055772;28;20093;-64
2021/11/24 01:48:58;;;;;;;84.72;14.23;;;22.40;37.90;;;;;;5069783;28;20072;-66
2021/11/24 01:51:25;;;;;;;75.93;15.90;;;22.40;38.00;;;;;;5063899;28;20100;-64
2021/11/24 01:53:51;;;;;;;72.72;14.55;;;22.40;38.80;;;;;;5046790;28;20597;-64
2021/11/24 01:56:21;;;;;;;65.18;12.90;;;22.30;38.80;;;;;;5069975;28;20095;-64
2021/11/24 01:58:48;;;;;;;65.53;12.93;;;22.30;37.90;;;;;;5076823;28;20398;-64
2021/11/24 02:01:14;;;;;;;95.43;14.23;;;22.30;38.80;;;;;;5075124;28;20076;-63
2021/11/24 02:03:41;;;;;;;81.93;14.48;;;22.30;38.60;;;;;;5072383;28;20069;-64
2021/11/24 02:06:09;;;;;;;85.07;17.27;;;22.20;37.00;;;;;;5090431;28;20075;-62
2021/11/24 02:08:35;;;;;;;91.30;18.65;;;22.20;37.20;;;;;;5060757;28;20109;-64
2021/11/24 02:11:02;;;;;;;93.03;18.42;;;22.20;38.80;;;;;;5064205;28;20072;-67
2021/11/24 02:13:28;;;;;;;105.97;18.55;;;22.10;39.00;;;;;;5066325;28;20084;-64
2021/11/24 02:15:55;;;;;;;77.03;19.17;;;22.10;39.50;;;;;;5044903;28;20539;-67
2021/11/24 02:18:21;;;;;;;83.88;17.83;;;22.00;39.70;;;;;;5072122;28;20107;-64
2021/11/24 02:20:48;;;;;;;89.72;19.23;;;22.00;39.90;;;;;;5038853;28;20080;-65
2021/11/24 02:23:15;;;;;;;97.82;19.25;;;21.90;40.90;;;;;;5077084;28;20539;-65
2021/11/24 02:25:44;;;;;;;102.88;19.75;;;21.80;40.40;;;;;;5057949;28;20168;-63
2021/11/24 02:28:11;;;;;;;105.15;21.50;;;21.80;41.40;;;;;;5068435;28;20085;-66
2021/11/24 02:30:37;;;;;;;99.30;19.30;;;21.80;41.70;;;;;;5063557;28;20164;-66
2021/11/24 02:33:04;;;;;;;126.57;21.00;;;21.70;41.30;;;;;;5083955;28;20126;-66
2021/11/24 02:35:30;;;;;;;110.85;21.08;;;21.60;40.60;;;;;;5059656;28;20108;-66
2021/11/24 02:37:57;;;;;;;85.93;17.95;;;21.50;41.80;;;;;;5072119;28;20440;-66
2021/11/24 02:40:29;;;;;;;99.40;18.00;;;21.40;41.90;;;;;;5073753;28;20096;-64
2021/11/24 02:42:56;;;;;;;105.93;18.33;;;21.40;41.60;;;;;;5054686;28;20602;-62
2021/11/24 02:45:23;;;;;;;102.78;19.23;;;21.30;42.20;;;;;;5021803;28;20069;-64
2021/11/24 02:47:50;;;;;;;86.40;19.95;;;21.20;41.20;;;;;;5069437;28;20104;-66
2021/11/24 02:50:16;;;;;;;96.63;22.35;;;21.20;41.50;;;;;;5062798;28;20227;-65
2021/11/24 02:52:43;;;;;;;117.60;26.25;;;21.20;42.50;;;;;;5084156;28;20122;-65
2021/11/24 02:55:09;;;;;;;108.22;24.05;;;21.10;42.00;;;;;;5059749;28;20069;-63
2021/11/24 02:57:37;;;;;;;96.72;23.30;;;21.00;42.80;;;;;;5071246;28;20085;-65
2021/11/24 03:00:22;;;;;;;109.22;20.30;;;21.00;43.30;;;;;;5054761;28;20073;-64
2021/11/24 03:02:49;;;;;;;111.43;20.00;;;20.90;43.80;;;;;;5074449;28;20523;-66
2021/11/24 03:05:24;;;;;;;116.20;19.65;;;20.80;43.90;;;;;;5054665;28;20490;-67
2021/11/24 03:07:51;;;;;;;85.75;19.17;;;20.70;43.60;;;;;;5021352;28;20410;-66
2021/11/24 03:10:18;;;;;;;89.03;20.23;;;20.70;44.30;;;;;;5062862;28;20527;-65
2021/11/24 03:12:45;;;;;;;86.15;18.70;;;20.60;43.40;;;;;;5083985;28;20081;-63
2021/11/24 03:15:11;;;;;;;89.05;18.90;;;20.60;43.50;;;;;;5048442;28;20107;-65
2021/11/24 03:17:38;;;;;;;110.22;18.80;;;20.50;43.30;;;;;;5059165;28;20087;-67
2021/11/24 03:20:07;;;;;;;86.00;16.27;;;20.50;43.90;;;;;;5070364;28;20168;-66
2021/11/24 03:22:34;;;;;;;84.57;15.55;;;20.40;43.50;;;;;;5054384;28;20416;-67
2021/11/24 03:25:01;;;;;;;73.97;15.70;;;20.40;43.90;;;;;;5038302;28;20546;-65
2021/11/24 03:27:30;;;;;;;57.38;13.63;;;20.30;42.80;;;;;;5071602;28;20080;-63
2021/11/24 03:29:59;;;;;;;82.28;15.05;;;20.30;43.20;;;;;;5058029;28;20101;-64
2021/11/24 03:32:27;;;;;;;61.20;13.95;;;20.30;44.10;;;;;;5053898;28;20077;-64
2021/11/24 03:34:54;;;;;;;64.22;14.18;;;20.20;42.70;;;;;;5063981;28;20494;-66
2021/11/24 03:37:21;;;;;;;65.97;14.25;;;20.20;43.00;;;;;;5083603;28;20535;-65
2021/11/24 03:39:48;;;;;;;80.07;14.88;;;20.10;42.60;;;;;;5057951;28;20096;-65
2021/11/24 03:42:16;;;;;;;74.20;14.63;;;20.10;42.50;;;;;;5072394;28;20114;-67
2021/11/24 03:44:43;;;;;;;54.45;13.45;;;20.00;43.10;;;;;;5052975;28;20584;-66
2021/11/24 03:47:10;;;;;;;58.08;13.18;;;20.00;43.10;;;;;;5058779;28;20084;-66
2021/11/24 03:49:36;;;;;;;60.70;13.40;;;19.90;43.30;;;;;;5053653;28;20097;-64
2021/11/24 03:52:04;;;;;;;50.53;13.20;;;19.90;42.90;;;;;;5053994;28;20093;-65
2021/11/24 03:54:31;;;;;;;59.83;12.88;;;19.90;42.00;;;;;;5063443;28;20080;-65
2021/11/24 03:56:57;;;;;;;44.90;11.38;;;19.90;41.90;;;;;;5065824;28;20608;-65
2021/11/24 03:59:24;;;;;;;51.13;10.02;;;19.90;41.70;;;;;;5074724;28;20072;-66
2021/11/24 04:01:50;;;;;;;52.10;10.52;;;19.90;38.90;;;;;;5071729;28;20068;-64
2021/11/24 04:04:17;;;;;;;36.42;9.70;;;19.80;40.00;;;;;;5053451;28;20116;-67
2021/11/24 04:06:43;;;;;;;39.25;8.52;;;19.80;41.10;;;;;;5072140;28;20156;-65
2021/11/24 04:09:10;;;;;;;35.55;7.90;;;19.80;40.90;;;;;;5057750;28;20167;-65
2021/11/24 04:11:36;;;;;;;39.80;8.32;;;19.80;40.00;;;;;;5062930;28;20179;-65
2021/11/24 04:14:03;;;;;;;39.45;7.88;;;19.80;40.20;;;;;;5062985;28;20100;-64
2021/11/24 04:16:30;;;;;;;40.92;6.60;;;19.80;40.20;;;;;;5058802;28;20538;-65
2021/11/24 04:18:59;;;;;;;39.65;6.75;;;19.80;39.30;;;;;;5069132;28;20085;-64
2021/11/24 04:21:26;;;;;;;39.05;6.93;;;19.80;39.10;;;;;;5072406;28;20789;-64
2021/11/24 04:23:52;;;;;;;38.05;7.07;;;19.80;38.90;;;;;;5063250;28;20080;-64
2021/11/24 04:26:19;;;;;;;33.30;7.30;;;19.80;39.20;;;;;;5089239;28;20073;-63
2021/11/24 04:28:45;;;;;;;25.13;6.28;;;19.80;39.30;;;;;;5075149;28;20130;-63
2021/11/24 04:31:11;;;;;;;30.90;6.97;;;19.70;40.10;;;;;;5064696;28;20080;-64
2021/11/24 04:33:38;;;;;;;26.95;8.00;;;19.70;40.10;;;;;;5081316;28;20164;-64
2021/11/24 04:36:05;;;;;;;41.25;10.00;;;19.70;40.90;;;;;;5042862;28;20161;-64
2021/11/24 04:38:32;;;;;;;32.33;9.35;;;19.60;40.80;;;;;;5035866;28;20180;-66
2021/11/24 04:40:58;;;;;;;44.67;9.05;;;19.60;39.80;;;;;;5053822;28;20073;-64
2021/11/24 04:43:30;;;;;;;38.17;8.25;;;19.60;40.60;;;;;;5072603;28;20069;-64
2021/11/24 04:45:56;;;;;;;39.33;8.48;;;19.60;40.30;;;;;;5071966;28;20130;-63
2021/11/24 04:48:23;;;;;;;39.88;8.38;;;19.50;40.10;;;;;;5085790;28;20076;-62
2021/11/24 04:50:50;;;;;;;43.58;8.25;;;19.50;38.90;;;;;;5060017;28;20085;-65
2021/11/24 04:53:16;;;;;;;49.10;9.27;;;19.50;38.70;;;;;;5062452;28;20476;-64
2021/11/24 04:55:42;;;;;;;;;;;19.40;38.80;;;;;;5084119;28;20073;-63
2021/11/24 04:58:08;;;;;;;44.58;8.73;;;19.30;38.70;;;;;;5055461;28;19972;-63
2021/11/24 05:00:35;;;;;;;40.00;8.60;;;19.30;38.60;;;;;;5071887;28;20222;-66
2021/11/24 05:03:01;;;;;;;64.75;10.27;;;19.30;40.50;;;;;;5052885;28;20065;-64
2021/11/24 05:05:29;;;;;;;53.80;11.35;;;19.30;40.90;;;;;;5069255;28;20076;-65
2021/11/24 05:07:57;;;;;;;63.22;12.63;;;19.30;40.70;;;;;;5057258;28;20077;-64
2021/11/24 05:10:24;;;;;;;70.97;12.93;;;19.30;39.40;;;;;;5075467;28;20088;-64
2021/11/24 05:12:50;;;;;;;66.28;11.60;;;19.30;38.40;;;;;;5061537;28;20072;-63
2021/11/24 05:15:41;;;;;;;73.75;12.95;;;19.40;38.80;;;;;;5065762;28;20073;-64
2021/11/24 05:18:13;;;;;;;47.65;12.63;;;19.40;37.00;;;;;;5075457;28;20138;-65
2021/11/24 05:20:41;;;;;;;54.97;12.82;;;19.50;36.60;;;;;;5067475;28;20085;-65
2021/11/24 05:23:11;;;;;;;50.88;11.75;;;19.50;36.90;;;;;;5052849;28;20080;-64
2021/11/24 05:25:38;;;;;;;59.53;11.10;;;19.60;37.10;;;;;;5069922;28;20069;-66
2021/11/24 05:28:04;;;;;;;39.17;11.25;;;19.60;36.80;;;;;;5052435;28;20184;-66
2021/11/24 05:30:31;;;;;;;54.80;12.38;;;19.70;37.60;;;;;;5068427;28;20076;-64
2021/11/24 05:32:58;;;;;;;60.28;12.95;;;19.60;36.70;;;;;;5058013;28;20162;-66
2021/11/24 05:35:25;;;;;;;70.50;12.57;;;19.70;36.90;;;;;;5060908;28;20134;-64
2021/11/24 05:37:52;;;;;;;61.08;11.88;;;19.60;37.20;;;;;;5063104;28;20175;-66
2021/11/24 05:40:19;;;;;;;69.40;11.23;;;19.60;37.60;;;;;;5056047;28;20538;-67
2021/11/24 05:42:49;;;;;;;56.53;12.52;;;19.60;37.00;;;;;;5069283;28;20511;-64
2021/11/24 05:48:03;;;;;;;57.38;12.35;;;19.50;37.00;;;;;;5067947;28;20230;-63
2021/11/24 05:50:30;;;;;;;54.47;11.73;;;19.40;36.70;;;;;;5051779;28;20431;-66
2021/11/24 05:52:57;;;;;;;48.85;11.40;;;19.40;36.50;;;;;;5085938;28;20084;-64
2021/11/24 05:55:24;;;;;;;41.83;11.95;;;19.40;37.50;;;;;;5057297;28;20160;-65
2021/11/24 05:57:51;;;;;;;41.65;11.45;;;19.40;36.70;;;;;;5062376;28;20491;-64
2021/11/24 06:00:18;;;;;;;48.70;11.57;;;19.40;37.00;;;;;;5063310;28;20077;-64
2021/11/24 06:02:45;;;;;;;50.60;11.93;;;19.40;37.30;;;;;;5066293;28;20070;-63
2021/11/24 06:05:12;;;;;;;56.63;11.68;;;19.40;36.10;;;;;;5053339;28;20127;-63
2021/11/24 06:07:39;;;;;;;55.40;12.27;;;19.40;36.20;;;;;;5091100;28;20632;-63
2021/11/24 06:10:07;;;;;;;59.40;11.45;;;19.40;36.50;;;;;;5072991;28;20116;-64
2021/11/24 06:12:34;;;;;;;52.20;11.70;;;19.40;37.20;;;;;;5072002;28;20068;-63
2021/11/24 06:15:01;;;;;;;69.57;11.93;;;19.30;37.00;;;;;;5060854;28;20092;-63
2021/11/24 06:17:27;;;;;;;59.25;12.07;;;19.20;37.20;;;;;;5065482;28;20146;-64
2021/11/24 06:19:53;;;;;;;;;;;19.20;38.10;;;;;;5066906;28;20115;-65
2021/11/24 06:22:19;;;;;;;62.30;11.75;;;19.10;38.30;;;;;;5076690;28;20010;-64
2021/11/24 06:24:46;;;;;;;54.50;12.07;;;19.00;38.50;;;;;;5076387;28;20069;-68
2021/11/24 06:27:14;;;;;;;64.18;14.10;;;18.90;39.60;;;;;;5092489;28;20084;-64
2021/11/24 06:29:41;;;;;;;64.72;12.70;;;18.90;40.20;;;;;;5054718;28;20083;-63
2021/11/24 06:32:07;;;;;;;73.70;13.77;;;18.90;41.00;;;;;;5068960;28;20069;-64
2021/11/24 06:34:34;;;;;;;62.85;13.80;;;18.80;41.00;;;;;;5060303;28;20162;-62
2021/11/24 06:37:00;;;;;;;59.88;15.75;;;18.80;41.40;;;;;;5063239;28;20129;-62
2021/11/24 06:39:27;;;;;;;;;;;18.70;40.30;;;;;;5066394;28;20081;-63
2021/11/24 06:41:58;;;;;;;86.30;17.75;;;18.70;40.10;;;;;;5058840;28;20408;-67
2021/11/24 06:44:25;;;;;;;81.53;18.20;;;18.70;41.40;;;;;;5071687;28;20472;-62
2021/11/24 06:46:52;;;;;;;96.90;19.17;;;18.60;41.50;;;;;;5054270;28;20077;-60
2021/11/24 06:49:18;;;;;;;91.25;18.67;;;18.60;42.20;;;;;;5071686;28;20585;-63
2021/11/24 06:51:44;;;;;;;;;;;18.50;41.50;;;;;;5069181;28;20080;-67
2021/11/24 06:54:11;;;;;;;91.57;20.65;;;18.50;41.90;;;;;;5059532;28;20087;-63
2021/11/24 06:56:37;;;;;;;76.97;21.25;;;18.50;42.30;;;;;;5064093;28;20076;-63
2021/11/24 06:59:05;;;;;;;96.82;21.55;;;18.40;41.90;;;;;;5065457;28;20093;-63
2021/11/24 07:01:32;;;;;;;115.05;23.85;;;18.30;41.70;;;;;;5041731;28;20411;-62
2021/11/24 07:03:58;;;;;;;90.88;20.90;;;18.20;42.50;;;;;;5071337;28;20073;-63
2021/11/24 07:06:24;;;;;;;;;;;18.20;43.50;;;;;;5054020;28;20081;-63
2021/11/24 07:08:51;;;;;;;104.53;23.67;;;18.20;42.70;;;;;;5089734;28;20002;-67
2021/11/24 07:11:17;;;;;;;;;;;18.20;43.50;;;;;;5057480;28;20075;-65
2021/11/24 07:13:43;;;;;;;95.85;24.48;;;18.10;43.30;;;;;;5070093;28;19961;-63
2021/11/24 07:16:09;;;;;;;;;;;18.00;43.60;;;;;;5081478;28;20092;-63
2021/11/24 07:18:35;;;;;;;115.18;26.65;;;17.90;43.60;;;;;;5065204;28;19981;-65
2021/11/24 07:21:03;;;;;;;;;;;17.80;44.20;;;;;;5075719;28;20069;-64
2021/11/24 07:23:29;;;;;;;152.63;30.73;;;17.80;43.90;;;;;;5066366;28;19964;-65
2021/11/24 07:25:55;;;;;;;;;;;17.80;43.80;;;;;;5073386;28;20175;-65
2021/11/24 07:28:22;;;;;;;136.57;28.25;;;17.70;45.30;;;;;;5072750;28;20386;-65
2021/11/24 07:30:48;;;;;;;;;;;17.70;44.70;;;;;;5068122;28;20080;-64
2021/11/24 07:33:14;;;;;;;124.60;30.35;;;17.60;44.60;;;;;;5088390;28;19972;-64
2021/11/24 07:35:40;;;;;;;;;;;17.60;44.90;;;;;;5060555;28;20113;-65
2021/11/24 07:38:06;;;;;;;133.35;28.38;;;17.60;45.60;;;;;;5054627;28;19977;-67
2021/11/24 07:40:33;;;;;;;124.10;29.55;;;17.50;45.40;;;;;;5065831;28;20108;-68
2021/11/24 07:42:59;;;;;;;140.18;32.80;;;17.50;45.50;;;;;;5049966;28;20531;-65
2021/11/24 07:45:25;;;;;;;;;;;17.40;44.70;;;;;;5079625;28;20474;-65
2021/11/24 07:47:52;;;;;;;115.72;28.88;;;17.30;45.50;;;;;;5068259;28;20311;-65
2021/11/24 07:50:18;;;;;;;;;;;17.30;46.30;;;;;;5069699;28;20142;-65
2021/11/24 07:52:44;;;;;;;135.10;31.23;;;17.30;46.40;;;;;;5057858;28;20439;-67
2021/11/24 07:55:11;;;;;;;155.68;30.40;;;17.30;46.10;;;;;;5058914;28;20088;-64
2021/11/24 07:57:37;;;;;;;113.75;29.20;;;17.30;46.20;;;;;;5056713;28;20086;-65
2021/11/24 08:00:06;;;;;;;135.68;31.17;;;17.30;46.30;;;;;;5050545;28;20082;-65
2021/11/24 08:02:32;;;;;;;135.27;31.60;;;17.30;46.10;;;;;;5069414;28;20505;-66
2021/11/24 08:04:58;;;;;;;;;;;17.30;45.50;;;;;;5049498;28;20469;-65
2021/11/24 08:07:24;;;;;;;129.48;31.50;;;17.20;45.00;;;;;;5064957;28;19957;-66
2021/11/24 08:09:51;;;;;;;;;;;17.10;45.50;;;;;;5055942;28;20084;-67
2021/11/24 08:12:18;;;;;;;147.20;34.10;;;17.10;46.30;;;;;;5058051;28;20000;-68
2021/11/24 08:14:44;;;;;;;125.40;30.58;;;17.10;46.70;;;;;;5059984;28;20099;-67
2021/11/24 08:17:10;;;;;;;138.82;30.13;;;17.00;46.50;;;;;;5053284;28;20097;-64
2021/11/24 08:19:36;;;;;;;;;;;17.00;46.70;;;;;;5068200;28;20112;-67
2021/11/24 08:22:03;;;;;;;126.97;32.70;;;17.00;47.00;;;;;;5049518;28;20023;-65
2021/11/24 08:24:29;;;;;;;126.88;34.50;;;16.90;46.60;;;;;;5054045;28;20069;-66
2021/11/24 08:26:55;;;;;;;;;;;16.90;46.60;;;;;;5064646;28;20073;-67
2021/11/24 08:29:22;;;;;;;138.23;36.20;;;16.90;47.10;;;;;;5055643;28;19965;-66
2021/11/24 08:31:48;;;;;;;;;;;16.80;47.30;;;;;;5059023;28;20084;-66
2021/11/24 08:34:14;;;;;;;139.75;32.50;;;16.70;47.20;;;;;;5063327;28;20019;-68
2021/11/24 08:36:41;;;;;;;131.95;34.13;;;16.70;47.60;;;;;;5055537;28;20068;-67
2021/11/24 08:39:08;;;;;;;136.55;33.00;;;16.80;48.20;;;;;;5070624;28;20175;-67
2021/11/24 08:41:35;;;;;;;135.38;35.33;;;16.90;48.20;;;;;;5052524;28;20523;-67
2021/11/24 08:44:02;;;;;;;150.50;34.92;;;16.90;47.30;;;;;;5069674;28;20075;-65
2021/11/24 08:46:28;;;;;;;;;;;16.80;48.00;;;;;;5057073;28;20096;-69
2021/11/24 08:48:54;;;;;;;151.95;36.40;;;16.80;47.80;;;;;;5064263;28;20009;-68
2021/11/24 08:51:21;;;;;;;126.82;33.85;;;16.70;47.10;;;;;;5080564;28;20533;-65
2021/11/24 08:53:47;;;;;;;127.40;31.38;;;16.60;47.80;;;;;;5075544;28;20207;-65
2021/11/24 08:56:13;;;;;;;;;;;16.50;47.00;;;;;;5068608;28;20130;-66
2021/11/24 08:58:40;;;;;;;137.98;33.38;;;16.40;47.10;;;;;;5051988;28;20016;-66
2021/11/24 09:01:07;;;;;;;122.85;32.35;;;16.40;47.60;;;;;;5055023;28;20071;-66
2021/11/24 09:03:34;;;;;;;134.68;31.58;;;16.40;47.80;;;;;;5068259;28;20076;-66
2021/11/24 09:06:03;;;;;;;144.50;32.15;;;16.50;48.10;;;;;;5065613;28;20060;-65
2021/11/24 09:08:30;;;;;;;114.38;28.58;;;16.40;48.30;;;;;;5076993;28;20496;-64
2021/11/24 09:10:57;;;;;;;121.38;27.70;;;16.40;47.40;;;;;;5060855;28;20084;-66
2021/11/24 09:13:24;;;;;;;101.68;26.67;;;16.40;47.50;;;;;;5065220;28;20069;-67
2021/11/24 09:15:50;;;;;;;94.72;26.77;;;16.40;47.00;;;;;;5055122;28;20077;-65
2021/11/24 09:18:17;;;;;;;;;;;16.40;46.80;;;;;;5071248;28;20580;-67
2021/11/24 09:20:44;;;;;;;106.30;28.20;;;16.40;48.30;;;;;;5052190;28;19963;-67
2021/11/24 09:23:12;;;;;;;107.45;25.75;;;16.40;47.10;;;;;;5064729;28;20073;-66
2021/11/24 09:25:50;;;;;;;102.97;27.80;;;16.30;47.00;;;;;;5066329;28;20480;-64
2021/11/24 09:28:19;;;;;;;83.22;25.85;;;16.40;48.00;;;;;;5042961;28;20077;-67
2021/11/24 09:30:47;;;;;;;103.43;26.60;;;16.40;47.60;;;;;;5060171;28;20088;-67
2021/11/24 09:33:13;;;;;;;108.45;25.58;;;16.20;47.50;;;;;;5059037;28;20069;-66
2021/11/24 09:35:40;;;;;;;90.85;24.67;;;16.20;48.00;;;;;;5065928;28;20117;-66
2021/11/24 09:38:06;;;;;;;;;;;16.10;47.90;;;;;;5054194;28;20089;-65
2021/11/24 09:40:33;;;;;;;86.57;22.67;;;16.10;47.60;;;;;;5071297;28;20958;-66
2021/11/24 09:43:03;;;;;;;78.53;23.88;;;16.00;48.10;;;;;;5020121;28;20184;-67
2021/11/24 09:45:30;;;;;;;103.40;24.85;;;16.00;48.90;;;;;;5072652;28;20073;-66
2021/11/24 09:47:59;;;;;;;83.05;23.25;;;15.90;48.50;;;;;;5060554;28;20146;-67
2021/11/24 09:50:31;;;;;;;86.85;22.00;;;16.00;48.90;;;;;;5065880;28;20100;-66
2021/11/24 09:52:59;;;;;;;92.25;22.27;;;16.00;48.70;;;;;;5066142;28;20073;-66
2021/11/24 09:55:27;;;;;;;67.32;21.20;;;16.00;48.20;;;;;;5061312;28;20065;-67
2021/11/24 09:57:55;;;;;;;64.47;18.30;;;15.90;48.30;;;;;;5054612;28;20147;-65
2021/11/24 10:00:23;;;;;;;66.00;19.17;;;15.90;48.30;;;;;;5038991;28;20664;-67
2021/11/24 10:02:49;;;;;;;67.75;19.15;;;15.90;49.10;;;;;;5075385;28;20541;-66
2021/11/24 10:05:18;;;;;;;55.72;17.52;;;15.90;48.80;;;;;;5040012;28;20100;-67
2021/11/24 10:07:46;;;;;;;52.17;16.23;;;15.90;49.00;;;;;;5054761;28;20104;-65
2021/11/24 10:10:12;;;;;;;;;;;15.90;49.10;;;;;;5046245;28;20077;-65
2021/11/24 10:12:39;;;;;;;52.60;15.02;;;15.90;49.00;;;;;;5081603;28;19973;-65
2021/11/24 10:15:10;;;;;;;64.32;15.02;;;15.80;48.90;;;;;;5051144;28;20073;-66
2021/11/24 10:17:36;;;;;;;51.97;13.82;;;15.80;49.40;;;;;;5077172;28;20096;-65
2021/11/24 10:20:09;;;;;;;34.05;11.80;;;15.70;49.00;;;;;;5073105;28;20073;-66
2021/11/24 10:22:38;;;;;;;46.28;12.13;;;15.70;49.20;;;;;;5055524;28;20485;-63
2021/11/24 10:25:14;;;;;;;42.85;13.63;;;15.60;49.40;;;;;;5055312;28;20096;-64
2021/11/24 10:27:44;;;;;;;53.67;14.90;;;15.60;48.70;;;;;;5073027;28;20068;-68
2021/11/24 10:30:21;;;;;;;44.85;13.65;;;15.50;48.80;;;;;;5076606;28;20511;-64
2021/11/24 10:32:48;;;;;;;55.85;13.93;;;15.40;49.10;;;;;;5087189;28;20155;-65
2021/11/24 10:35:14;;;;;;;47.00;13.25;;;15.40;50.10;;;;;;5088843;22;20587;-65
2021/11/24 10:37:41;;;;;;;55.17;13.02;;;15.30;49.80;;;;;;5080102;28;20096;-67
2021/11/24 10:40:08;;;;;;;;;;;15.40;49.50;;;;;;5086316;28;20557;-66
2021/11/24 10:42:36;;;;;;;39.75;13.48;;;15.20;49.50;;;;;;5089642;28;20426;-65
2021/11/24 10:45:15;;;;;;;47.03;13.73;;;15.10;50.10;;;;;;5071125;28;20078;-64
2021/11/24 10:47:51;;;;;;;31.63;11.85;;;15.20;50.60;;;;;;5091262;28;20419;-65
2021/11/24 10:50:20;;;;;;;32.53;11.80;;;15.20;51.20;;;;;;5045104;28;20089;-65
2021/11/24 10:52:47;;;;;;;33.17;9.43;;;15.30;50.70;;;;;;5050629;28;20116;-64
2021/11/24 10:55:17;;;;;;;38.50;12.48;;;15.30;49.60;;;;;;5066552;28;20599;-65
2021/11/24 10:57:58;;;;;;;47.85;13.15;;;15.20;50.10;;;;;;5066391;28;20184;-66
2021/11/24 11:00:42;;;;;;;39.15;11.98;;;15.20;50.60;;;;;;5066026;28;20123;-66
2021/11/24 11:03:10;;;;;;;41.65;11.15;;;15.30;50.90;;;;;;5063171;28;20144;-63
2021/11/24 11:05:44;;;;;;;32.63;11.68;;;15.20;51.00;;;;;;5065994;28;20078;-64
2021/11/24 11:08:14;;;;;;;43.53;11.30;;;15.20;51.10;;;;;;5066352;28;20077;-66
2021/11/24 11:10:49;;;;;;;41.47;12.43;;;15.20;51.60;;;;;;5054467;28;20163;-66
2021/11/24 11:13:18;;;;;;;37.20;12.05;;;15.20;51.80;;;;;;5086283;28;20088;-67
2021/11/24 11:15:46;;;;;;;40.65;11.38;;;15.10;51.60;;;;;;5069551;28;20073;-65
2021/11/24 11:18:15;;;;;;;38.38;12.13;;;15.00;51.60;;;;;;5068735;28;20436;-65
2021/11/24 11:20:47;;;;;;;44.60;12.82;;;14.90;52.00;;;;;;5066569;28;20520;-65
2021/11/24 11:23:21;;;;;;;43.42;12.73;;;14.90;52.50;;;;;;5076733;28;20435;-65
2021/11/24 11:25:59;;;;;;;44.80;12.95;;;14.90;52.60;;;;;;5065914;28;20115;-65
2021/11/24 11:28:28;;;;;;;38.22;13.38;;;14.80;52.50;;;;;;5062862;28;20527;-65
2021/11/24 11:30:57;;;;;;;46.75;14.20;;;14.80;53.20;;;;;;5062343;28;20511;-68
2021/11/24 11:33:31;;;;;;;55.38;16.00;;;14.70;53.00;;;;;;5067067;28;20535;-65
2021/11/24 11:36:03;;;;;;;44.95;14.55;;;14.70;52.80;;;;;;5071377;28;20140;-67
2021/11/24 11:38:30;;;;;;;47.60;14.73;;;14.80;53.60;;;;;;5087971;28;20141;-66
2021/11/24 11:40:56;;;;;;;;;;;14.70;53.30;;;;;;5069711;28;20084;-66
2021/11/24 11:43:24;;;;;;;51.88;15.52;;;14.70;53.00;;;;;;5072983;28;20195;-67
2021/11/24 11:45:51;;;;;;;56.00;16.15;;;14.70;53.20;;;;;;5069446;28;20076;-66
2021/11/24 11:48:28;;;;;;;48.13;15.95;;;14.70;53.50;;;;;;5068878;28;20173;-66
2021/11/24 11:51:02;;;;;;;49.20;16.17;;;14.70;53.80;;;;;;5078970;28;20092;-66
2021/11/24 11:53:38;;;;;;;50.08;16.63;;;14.60;53.90;;;;;;5073248;28;20085;-65
2021/11/24 11:56:11;;;;;;;50.00;16.88;;;14.60;53.80;;;;;;5071285;28;20487;-67
2021/11/24 11:59:05;;;;;;;57.45;17.77;;;14.60;54.00;;;;;;5072551;28;20142;-66
2021/11/24 12:01:42;;;;;;;55.88;17.55;;;14.50;53.50;;;;;;5082986;28;20069;-66
2021/11/24 12:04:21;;;;;;;62.85;18.13;;;14.40;53.80;;;;;;5068616;28;20096;-66
2021/11/24 12:06:51;;;;;;;47.05;18.05;;;14.30;54.20;;;;;;5074227;28;20082;-67
2021/11/24 12:09:26;;;;;;;66.13;18.67;;;14.40;54.30;;;;;;5072573;28;20477;-65
2021/11/24 12:12:04;;;;;;;71.05;19.88;;;14.40;55.00;;;;;;5088894;28;20127;-66
2021/11/24 12:14:43;;;;;;;61.20;19.42;;;14.30;54.70;;;;;;5073096;28;20072;-66
2021/11/24 12:17:31;;;;;;;76.25;20.33;;;14.20;54.70;;;;;;5089199;28;20076;-65
2021/11/24 12:19:59;;;;;;;73.35;20.77;;;14.20;55.20;;;;;;5071850;28;20108;-66
2021/11/24 12:22:50;;;;;;;64.38;19.90;;;14.20;55.10;;;;;;5073702;28;20064;-68
2021/11/24 12:25:37;;;;;;;71.93;21.35;;;14.30;55.20;;;;;;5070388;28;20076;-66
2021/11/24 12:28:07;;;;;;;82.97;20.77;;;14.40;54.90;;;;;;5071952;28;20077;-65
2021/11/24 12:33:06;;;;;;;96.88;23.27;;;14.40;55.10;;;;;;5077467;28;20130;-66
2021/11/24 12:35:35;;;;;;;77.30;21.50;;;14.30;55.00;;;;;;5067794;28;20109;-68
2021/11/24 12:38:03;;;;;;;86.85;24.77;;;14.20;55.00;;;;;;5054075;28;20081;-68
2021/11/24 12:40:38;;;;;;;85.38;24.05;;;14.10;55.00;;;;;;5086185;28;20084;-68
2021/11/24 12:43:07;;;;;;;83.10;25.10;;;14.20;55.60;;;;;;5070394;28;20064;-67